createdAt,value
2022-12-11T00:01:11.944Z,57.29
2022-12-11T00:03:40.595Z,57.17
2022-12-11T00:06:14.366Z,57.48
2022-12-11T00:08:43.147Z,56.93
2022-12-11T00:11:17.918Z,57.36
2022-12-11T00:13:46.041Z,57.88
2022-12-11T00:16:14.215Z,57.90
2022-12-11T00:18:42.387Z,57.86
2022-12-11T00:21:15.592Z,58.36
2022-12-11T00:23:44.017Z,59.07
2022-12-11T00:26:15.668Z,59.12
2022-12-11T00:28:44.431Z,58.92
2022-12-11T00:31:17.471Z,58.82
2022-12-11T00:33:48.903Z,58.85
2022-12-11T00:36:22.552Z,60.34
2022-12-11T00:38:51.484Z,59.71
2022-12-11T00:41:19.824Z,59.81
2022-12-11T00:43:48.471Z,58.99
2022-12-11T00:46:16.755Z,57.92
2022-12-11T00:48:46.125Z,56.57
2022-12-11T00:51:14.260Z,55.59
2022-12-11T00:53:44.043Z,54.12
2022-12-11T00:56:15.329Z,54.25
2022-12-11T00:58:43.689Z,52.87
2022-12-11T01:01:15.601Z,53.07
2022-12-11T01:03:43.937Z,53.44
2022-12-11T01:06:16.931Z,52.43
2022-12-11T01:08:47.819Z,51.80
2022-12-11T01:11:17.198Z,52.35
2022-12-11T01:13:46.262Z,53.07
2022-12-11T01:16:16.810Z,52.93
2022-12-11T01:18:45.522Z,53.67
2022-12-11T01:21:15.092Z,54.72
2022-12-11T01:23:43.192Z,55.78
2022-12-11T01:26:15.461Z,55.73
2022-12-11T01:28:44.402Z,55.74
2022-12-11T01:31:15.554Z,56.83
2022-12-11T01:33:44.108Z,57.28
2022-12-11T01:36:15.059Z,57.66
2022-12-11T01:38:43.341Z,57.66
2022-12-11T01:41:13.000Z,58.09
2022-12-11T01:44:03.053Z,57.92
2022-12-11T01:46:33.779Z,57.74
2022-12-11T01:49:04.855Z,58.25
2022-12-11T01:51:37.027Z,58.90
2022-12-11T01:54:12.334Z,58.30
2022-12-11T01:56:45.000Z,58.52
2022-12-11T01:59:15.483Z,58.53
2022-12-11T02:01:50.300Z,59.01
2022-12-11T02:04:19.752Z,58.87
2022-12-11T02:06:51.016Z,58.73
2022-12-11T02:09:23.346Z,58.25
2022-12-11T02:12:02.970Z,58.65
2022-12-11T02:14:39.572Z,58.28
2022-12-11T02:17:14.442Z,58.45
2022-12-11T02:20:01.821Z,58.45
2022-12-11T02:23:04.940Z,58.85
2022-12-11T02:25:38.859Z,58.67
2022-12-11T02:28:22.060Z,58.88
2022-12-11T02:30:56.895Z,59.18
2022-12-11T02:33:43.196Z,59.14
2022-12-11T02:36:12.306Z,58.70
2022-12-11T02:38:46.838Z,58.29
2022-12-11T02:41:15.257Z,58.63
2022-12-11T02:43:45.656Z,59.14
2022-12-11T02:46:15.265Z,58.85
2022-12-11T02:49:10.504Z,59.13
2022-12-11T02:51:43.213Z,59.49
2022-12-11T02:54:20.214Z,59.50
2022-12-11T02:57:27.709Z,59.51
2022-12-11T03:00:21.567Z,60.05
2022-12-11T03:02:49.961Z,59.81
2022-12-11T03:05:18.224Z,59.89
2022-12-11T03:07:46.737Z,59.39
2022-12-11T03:10:19.661Z,59.49
2022-12-11T03:12:54.117Z,59.52
2022-12-11T03:15:33.572Z,59.59
2022-12-11T03:18:10.410Z,59.71
2022-12-11T03:20:44.005Z,59.77
2022-12-11T03:23:22.584Z,59.38
2022-12-11T03:25:57.366Z,59.46
2022-12-11T03:28:31.195Z,59.50
2022-12-11T03:31:09.211Z,59.55
2022-12-11T03:33:41.371Z,59.31
2022-12-11T03:36:15.406Z,59.42
2022-12-11T03:38:50.112Z,59.69
2022-12-11T03:41:21.825Z,59.27
2022-12-11T03:43:52.316Z,59.75
2022-12-11T03:46:26.497Z,59.85
2022-12-11T03:48:57.454Z,59.84
2022-12-11T03:51:26.577Z,59.31
2022-12-11T03:53:56.255Z,59.47
2022-12-11T03:56:27.794Z,59.51
2022-12-11T03:58:55.935Z,59.88
2022-12-11T04:01:25.457Z,59.81
2022-12-11T04:03:54.110Z,59.38
2022-12-11T04:06:22.263Z,59.46
2022-12-11T04:08:50.425Z,59.96
2022-12-11T04:11:36.787Z,59.65
2022-12-11T04:14:29.738Z,59.23
2022-12-11T04:17:02.137Z,59.71
2022-12-11T04:19:48.056Z,60.01
2022-12-11T04:22:36.981Z,60.24
2022-12-11T04:25:09.869Z,59.56
2022-12-11T04:27:58.120Z,60.24
2022-12-11T04:30:33.792Z,59.74
2022-12-11T04:33:03.794Z,59.89
2022-12-11T04:35:31.935Z,59.62
2022-12-11T04:38:01.244Z,59.22
2022-12-11T04:40:29.428Z,59.57
2022-12-11T04:42:57.526Z,59.22
2022-12-11T04:45:25.583Z,59.44
2022-12-11T04:47:53.685Z,59.53
2022-12-11T04:50:23.282Z,58.91
2022-12-11T04:52:51.381Z,59.67
2022-12-11T04:55:19.607Z,59.52
2022-12-11T04:57:47.760Z,59.63
2022-12-11T05:00:17.243Z,59.57
2022-12-11T05:02:45.333Z,59.68
2022-12-11T05:05:14.303Z,59.22
2022-12-11T05:07:43.975Z,58.85
2022-12-11T05:10:12.139Z,59.37
2022-12-11T05:12:40.263Z,59.12
2022-12-11T05:15:09.982Z,59.13
2022-12-11T05:17:38.328Z,59.19
2022-12-11T05:20:07.879Z,58.96
2022-12-11T05:22:35.979Z,59.32
2022-12-11T05:25:06.463Z,58.89
2022-12-11T05:27:35.107Z,58.60
2022-12-11T05:30:03.289Z,58.76
2022-12-11T05:32:31.981Z,58.13
2022-12-11T05:35:00.116Z,58.55
2022-12-11T05:37:28.404Z,58.31
2022-12-11T05:39:56.470Z,58.30
2022-12-11T05:42:29.022Z,58.23
2022-12-11T05:44:57.352Z,58.05
2022-12-11T05:47:25.725Z,58.09
2022-12-11T05:49:53.966Z,58.45
2022-12-11T05:52:22.126Z,58.34
2022-12-11T05:54:50.636Z,58.71
2022-12-11T05:57:18.773Z,58.79
2022-12-11T05:59:48.179Z,58.57
2022-12-11T06:02:16.334Z,58.13
2022-12-11T06:04:44.464Z,57.69
2022-12-11T06:07:12.796Z,57.94
2022-12-11T06:09:40.852Z,58.50
2022-12-11T06:12:08.936Z,57.60
2022-12-11T06:14:36.993Z,57.27
2022-12-11T06:17:06.582Z,58.60
2022-12-11T06:19:36.969Z,58.37
2022-12-11T06:22:05.878Z,57.04
2022-12-11T06:24:33.974Z,55.50
2022-12-11T06:27:02.213Z,54.18
2022-12-11T06:29:30.356Z,52.76
2022-12-11T06:31:58.507Z,52.39
2022-12-11T06:34:28.112Z,51.65
2022-12-11T06:36:56.177Z,50.69
2022-12-11T06:39:24.245Z,50.79
2022-12-11T06:41:52.325Z,49.82
2022-12-11T06:44:20.408Z,50.11
2022-12-11T06:46:48.465Z,49.42
2022-12-11T06:49:16.930Z,49.02
2022-12-11T06:51:46.446Z,49.59
2022-12-11T06:54:14.787Z,48.00
2022-12-11T06:56:42.954Z,48.77
2022-12-11T06:59:13.543Z,47.89
2022-12-11T07:01:41.844Z,48.08
2022-12-11T07:04:10.776Z,48.82
2022-12-11T07:06:38.848Z,48.39
2022-12-11T07:09:08.338Z,48.31
2022-12-11T07:11:36.398Z,48.43
2022-12-11T07:14:04.518Z,48.67
2022-12-11T07:16:32.648Z,48.41
2022-12-11T07:19:01.295Z,49.67
2022-12-11T07:21:29.803Z,50.06
2022-12-11T07:23:57.826Z,51.25
2022-12-11T07:26:27.624Z,51.68
2022-12-11T07:28:58.725Z,52.51
2022-12-11T07:31:29.786Z,53.33
2022-12-11T07:33:59.482Z,53.54
2022-12-11T07:36:29.541Z,54.66
2022-12-11T07:38:57.983Z,54.96
2022-12-11T07:41:28.782Z,54.81
2022-12-11T07:43:57.157Z,55.66
2022-12-11T07:46:29.226Z,56.20
2022-12-11T07:48:57.449Z,56.34
2022-12-11T07:51:28.227Z,56.34
2022-12-11T07:53:59.028Z,56.49
2022-12-11T07:56:29.917Z,56.56
2022-12-11T07:59:01.194Z,56.50
2022-12-11T08:01:31.899Z,56.57
2022-12-11T08:04:00.465Z,57.39
2022-12-11T08:06:30.640Z,57.40
2022-12-11T08:09:00.936Z,57.52
2022-12-11T08:11:30.865Z,56.79
2022-12-11T08:14:00.188Z,56.42
2022-12-11T08:16:28.727Z,56.80
2022-12-11T08:18:56.825Z,56.41
2022-12-11T08:21:27.801Z,56.25
2022-12-11T08:23:56.586Z,57.33
2022-12-11T08:26:27.975Z,56.81
2022-12-11T08:28:58.547Z,56.25
2022-12-11T08:31:27.835Z,56.66
2022-12-11T08:33:58.986Z,56.73
2022-12-11T08:36:27.162Z,56.94
2022-12-11T08:38:56.905Z,57.46
2022-12-11T08:41:28.057Z,57.19
2022-12-11T08:44:00.323Z,57.37
2022-12-11T08:46:34.413Z,57.29
2022-12-11T08:49:02.547Z,56.75
2022-12-11T08:51:32.013Z,56.88
2022-12-11T08:54:02.419Z,57.22
2022-12-11T08:56:31.109Z,57.30
2022-12-11T08:59:04.091Z,57.41
2022-12-11T09:01:37.649Z,57.11
2022-12-11T09:04:05.974Z,57.56
2022-12-11T09:06:34.799Z,57.49
2022-12-11T09:09:04.404Z,57.40
2022-12-11T09:11:35.809Z,57.43
2022-12-11T09:14:08.179Z,57.74
2022-12-11T09:16:41.250Z,57.22
2022-12-11T09:19:13.427Z,57.01
2022-12-11T09:21:44.655Z,57.36
2022-12-11T09:24:14.914Z,57.32
2022-12-11T09:26:43.578Z,57.06
2022-12-11T09:29:13.867Z,57.53
2022-12-11T09:31:43.259Z,57.63
2022-12-11T09:34:14.658Z,56.73
2022-12-11T09:36:44.213Z,56.55
2022-12-11T09:39:14.873Z,56.50
2022-12-11T09:41:56.254Z,56.51
2022-12-11T09:44:39.662Z,55.92
2022-12-11T09:47:21.513Z,55.41
2022-12-11T09:49:55.974Z,55.62
2022-12-11T09:52:32.967Z,55.84
2022-12-11T09:55:05.337Z,55.83
2022-12-11T09:57:45.393Z,56.17
2022-12-11T10:00:25.538Z,55.95
2022-12-11T10:03:21.728Z,55.76
2022-12-11T10:06:04.187Z,56.11
2022-12-11T10:08:40.155Z,56.23
2022-12-11T10:11:32.187Z,56.30
2022-12-11T10:14:09.686Z,55.93
2022-12-11T10:16:44.913Z,55.54
2022-12-11T10:19:20.127Z,56.38
2022-12-11T10:21:50.318Z,56.66
2022-12-11T10:24:59.310Z,56.04
2022-12-11T10:27:19.367Z,56.16
2022-12-11T10:29:48.321Z,56.55
2022-12-11T10:32:25.373Z,56.28
2022-12-11T10:35:00.750Z,56.65
2022-12-11T10:37:29.435Z,56.17
2022-12-11T10:39:57.543Z,56.20
2022-12-11T10:42:25.629Z,56.88
2022-12-11T10:44:59.886Z,57.00
2022-12-11T10:47:29.981Z,57.14
2022-12-11T10:50:00.686Z,56.63
2022-12-11T10:52:34.163Z,56.63
2022-12-11T10:55:05.971Z,56.74
2022-12-11T10:57:37.019Z,56.33
2022-12-11T11:00:09.574Z,57.44
2022-12-11T11:02:40.737Z,57.16
2022-12-11T11:05:16.838Z,56.85
2022-12-11T11:07:45.205Z,56.71
2022-12-11T11:10:18.799Z,56.70
2022-12-11T11:12:50.040Z,57.19
2022-12-11T11:15:23.587Z,56.51
2022-12-11T11:17:56.243Z,56.32
2022-12-11T11:20:27.938Z,57.02
2022-12-11T11:22:59.971Z,56.61
2022-12-11T11:25:32.632Z,56.73
2022-12-11T11:28:04.657Z,56.59
2022-12-11T11:30:37.491Z,56.82
2022-12-11T11:33:14.686Z,56.99
2022-12-11T11:35:54.234Z,56.88
2022-12-11T11:38:26.028Z,57.34
2022-12-11T11:41:07.691Z,58.02
2022-12-11T11:43:45.058Z,57.64
2022-12-11T11:46:18.819Z,57.48
2022-12-11T11:48:57.572Z,57.60
2022-12-11T11:51:33.102Z,58.14
2022-12-11T11:54:12.221Z,57.36
2022-12-11T11:56:40.633Z,57.38
2022-12-11T11:59:19.549Z,57.76
2022-12-11T12:01:48.400Z,57.01
2022-12-11T12:04:17.878Z,57.25
2022-12-11T12:07:08.924Z,56.76
2022-12-11T12:09:50.181Z,56.63
2022-12-11T12:12:33.754Z,56.27
2022-12-11T12:15:30.748Z,56.50
2022-12-11T12:18:08.045Z,56.08
2022-12-11T12:20:48.769Z,55.75
2022-12-11T12:23:36.627Z,56.25
2022-12-11T12:26:15.890Z,56.25
2022-12-11T12:28:53.829Z,57.09
2022-12-11T12:32:04.549Z,56.97
2022-12-11T12:34:52.732Z,56.73
2022-12-11T12:37:43.721Z,56.11
2022-12-11T12:40:21.883Z,56.80
2022-12-11T12:42:59.352Z,57.04
2022-12-11T12:45:33.707Z,56.79
2022-12-11T12:48:02.918Z,56.91
2022-12-11T12:50:42.770Z,56.88
2022-12-11T12:53:20.384Z,57.27
2022-12-11T12:55:49.925Z,58.05
2022-12-11T12:58:30.233Z,57.52
2022-12-11T13:01:09.724Z,58.09
2022-12-11T13:03:50.917Z,58.13
2022-12-11T13:06:37.932Z,58.17
2022-12-11T13:09:18.673Z,58.18
2022-12-11T13:11:50.127Z,58.33
2022-12-11T13:14:31.051Z,57.83
2022-12-11T13:17:26.328Z,58.21
2022-12-11T13:20:15.163Z,57.84
2022-12-11T13:23:08.884Z,58.16
2022-12-11T13:25:54.379Z,57.55
2022-12-11T13:28:28.588Z,58.26
2022-12-11T13:31:27.270Z,58.28
2022-12-11T13:33:58.389Z,58.79
2022-12-11T13:36:34.062Z,58.91
2022-12-11T13:39:17.459Z,58.03
2022-12-11T13:41:51.362Z,58.36
2022-12-11T13:44:25.669Z,58.71
2022-12-11T13:46:56.900Z,58.59
2022-12-11T13:49:29.258Z,58.56
2022-12-11T13:52:00.506Z,58.70
2022-12-11T13:54:59.165Z,58.40
2022-12-11T13:57:29.328Z,58.80
2022-12-11T13:59:59.513Z,58.62
2022-12-11T14:02:33.126Z,58.03
2022-12-11T14:05:06.945Z,57.63
2022-12-11T14:07:39.200Z,58.56
2022-12-11T14:10:17.072Z,58.72
2022-12-11T14:12:57.406Z,58.06
2022-12-11T14:15:29.152Z,59.07
2022-12-11T14:17:59.316Z,58.90
2022-12-11T14:20:31.009Z,58.86
2022-12-11T14:23:07.659Z,58.57
2022-12-11T14:25:36.045Z,58.32
2022-12-11T14:28:05.652Z,58.40
2022-12-11T14:30:37.496Z,58.97
2022-12-11T14:33:06.871Z,58.31
2022-12-11T14:35:40.330Z,58.68
2022-12-11T14:38:17.576Z,58.76
2022-12-11T14:40:51.604Z,58.92
2022-12-11T14:43:29.412Z,58.62
2022-12-11T14:46:02.990Z,59.30
2022-12-11T14:48:37.131Z,58.85
2022-12-11T14:51:09.498Z,58.82
2022-12-11T14:53:42.807Z,58.48
2022-12-11T14:56:20.032Z,58.29
2022-12-11T14:58:57.118Z,58.62
2022-12-11T15:01:29.694Z,58.71
2022-12-11T15:04:09.205Z,58.12
2022-12-11T15:06:46.664Z,58.68
2022-12-11T15:09:21.683Z,58.65
2022-12-11T15:11:51.599Z,59.07
2022-12-11T15:14:24.075Z,58.79
2022-12-11T15:16:54.647Z,59.40
2022-12-11T15:19:29.554Z,59.67
2022-12-11T15:22:04.041Z,59.19
2022-12-11T15:24:39.133Z,59.02
2022-12-11T15:27:24.865Z,59.97
2022-12-11T15:29:54.446Z,60.12
2022-12-11T15:32:23.354Z,59.83
2022-12-11T15:34:54.470Z,60.10
2022-12-11T15:37:25.763Z,59.99
2022-12-11T15:39:55.829Z,59.86
2022-12-11T15:42:30.968Z,59.49
2022-12-11T15:45:01.424Z,60.12
2022-12-11T15:47:32.291Z,59.93
2022-12-11T15:50:02.988Z,59.60
2022-12-11T15:52:32.527Z,59.66
2022-12-11T15:55:00.623Z,60.68
2022-12-11T15:57:28.735Z,60.49
2022-12-11T15:59:57.058Z,60.31
2022-12-11T16:02:27.916Z,60.51
2022-12-11T16:04:57.302Z,60.32
2022-12-11T16:07:27.583Z,60.05
2022-12-11T16:09:55.735Z,60.59
2022-12-11T16:12:23.787Z,60.24
2022-12-11T16:14:51.913Z,61.24
2022-12-11T16:17:20.466Z,61.11
2022-12-11T16:19:49.910Z,60.21
2022-12-11T16:22:18.048Z,59.97
2022-12-11T16:24:46.156Z,59.98
2022-12-11T16:27:18.624Z,59.95
2022-12-11T16:29:50.423Z,60.28
2022-12-11T16:32:18.719Z,60.36
2022-12-11T16:34:47.000Z,59.69
2022-12-11T16:37:16.705Z,60.51
2022-12-11T16:39:45.978Z,60.64
2022-12-11T16:42:14.093Z,60.44
2022-12-11T16:44:44.367Z,60.21
2022-12-11T16:47:12.682Z,59.80
2022-12-11T16:49:40.864Z,59.31
2022-12-11T16:52:09.040Z,59.96
2022-12-11T16:54:38.792Z,60.13
2022-12-11T16:57:06.912Z,60.59
2022-12-11T16:59:37.364Z,60.40
2022-12-11T17:02:06.403Z,60.22
2022-12-11T17:04:34.524Z,60.33
2022-12-11T17:07:02.620Z,60.55
2022-12-11T17:09:30.729Z,60.42
2022-12-11T17:12:00.441Z,60.17
2022-12-11T17:14:28.820Z,60.61
2022-12-11T17:16:57.780Z,60.45
2022-12-11T17:19:25.915Z,60.28
2022-12-11T17:21:55.519Z,59.63
2022-12-11T17:24:23.788Z,60.64
2022-12-11T17:26:53.722Z,60.19
2022-12-11T17:29:23.159Z,60.38
2022-12-11T17:31:51.915Z,60.58
2022-12-11T17:34:20.100Z,60.59
2022-12-11T17:36:48.298Z,60.90
2022-12-11T17:39:16.644Z,61.47
2022-12-11T17:41:44.717Z,61.34
2022-12-11T17:44:12.944Z,61.11
2022-12-11T17:46:43.069Z,61.57
2022-12-11T17:49:11.421Z,61.42
2022-12-11T17:51:39.591Z,62.10
2022-12-11T17:54:07.688Z,61.28
2022-12-11T17:56:36.243Z,61.45
2022-12-11T17:59:04.992Z,61.89
2022-12-11T18:01:33.324Z,61.42
2022-12-11T18:04:02.979Z,61.62
2022-12-11T18:06:31.574Z,61.39
2022-12-11T18:08:59.763Z,61.12
2022-12-11T18:11:28.237Z,61.28
2022-12-11T18:13:56.577Z,61.01
2022-12-11T18:16:28.884Z,61.08
2022-12-11T18:18:57.473Z,60.66
2022-12-11T18:21:29.933Z,61.18
2022-12-11T18:23:58.937Z,61.10
2022-12-11T18:26:27.434Z,61.33
2022-12-11T18:28:56.219Z,61.32
2022-12-11T18:31:25.676Z,61.13
2022-12-11T18:33:54.211Z,61.57
2022-12-11T18:36:23.157Z,61.61
2022-12-11T18:38:52.588Z,60.80
2022-12-11T18:41:21.417Z,61.04
2022-12-11T18:43:49.585Z,60.65
2022-12-11T18:46:20.837Z,60.87
2022-12-11T18:48:50.028Z,61.12
2022-12-11T18:51:22.590Z,60.86
2022-12-11T18:53:52.893Z,60.26
2022-12-11T18:56:22.857Z,60.57
2022-12-11T18:58:52.947Z,60.90
2022-12-11T19:01:23.859Z,60.94
2022-12-11T19:04:00.799Z,60.24
2022-12-11T19:06:35.348Z,60.54
2022-12-11T19:09:08.789Z,61.03
2022-12-11T19:11:40.347Z,60.81
2022-12-11T19:14:09.711Z,60.12
2022-12-11T19:16:41.960Z,60.36
2022-12-11T19:19:13.354Z,59.46
2022-12-11T19:21:42.329Z,59.61
2022-12-11T19:24:15.674Z,59.54
2022-12-11T19:26:44.958Z,59.13
2022-12-11T19:29:22.200Z,59.36
2022-12-11T19:31:50.589Z,58.96
2022-12-11T19:34:19.056Z,58.88
2022-12-11T19:36:47.302Z,59.40
2022-12-11T19:39:16.877Z,59.42
2022-12-11T19:41:45.345Z,59.57
2022-12-11T19:44:14.002Z,59.14
2022-12-11T19:46:42.217Z,59.39
2022-12-11T19:49:12.465Z,58.96
2022-12-11T19:51:43.679Z,59.14
2022-12-11T19:54:17.125Z,58.94
2022-12-11T19:56:46.087Z,58.98
2022-12-11T19:59:16.904Z,59.51
2022-12-11T20:01:47.958Z,59.20
2022-12-11T20:04:18.353Z,59.53
2022-12-11T20:06:48.022Z,59.02
2022-12-11T20:09:18.014Z,59.26
2022-12-11T20:11:48.285Z,58.94
2022-12-11T20:14:22.064Z,59.19
2022-12-11T20:17:10.890Z,59.71
2022-12-11T20:19:40.106Z,60.10
2022-12-11T20:22:09.018Z,60.09
2022-12-11T20:24:38.755Z,60.17
2022-12-11T20:27:07.080Z,59.91
2022-12-11T20:29:35.185Z,60.32
2022-12-11T20:32:03.795Z,60.04
2022-12-11T20:34:33.807Z,59.95
2022-12-11T20:37:07.742Z,59.98
2022-12-11T20:39:35.904Z,59.77
2022-12-11T20:42:05.676Z,59.30
2022-12-11T20:44:33.901Z,59.90
2022-12-11T20:47:02.198Z,60.06
2022-12-11T20:49:30.256Z,60.02
2022-12-11T20:51:59.451Z,59.94
2022-12-11T20:54:27.566Z,60.29
2022-12-11T20:56:55.677Z,60.14
2022-12-11T20:59:26.073Z,60.46
2022-12-11T21:01:54.347Z,59.93
2022-12-11T21:04:22.547Z,60.03
2022-12-11T21:06:55.500Z,60.03
2022-12-11T21:09:26.065Z,59.93
2022-12-11T21:11:54.686Z,59.75
2022-12-11T21:14:24.097Z,59.92
2022-12-11T21:16:52.463Z,60.10
2022-12-11T21:19:21.424Z,60.15
2022-12-11T21:21:50.312Z,59.57
2022-12-11T21:24:21.365Z,59.18
2022-12-11T21:26:50.287Z,59.29
2022-12-11T21:29:18.988Z,59.64
2022-12-11T21:31:48.538Z,59.63
2022-12-11T21:34:20.628Z,59.34
2022-12-11T21:36:54.647Z,59.06
2022-12-11T21:39:22.847Z,58.87
2022-12-11T21:41:51.019Z,58.77
2022-12-11T21:47:08.718Z,59.11
2022-12-11T21:49:37.919Z,58.73
2022-12-11T21:52:08.322Z,59.29
2022-12-11T21:54:37.008Z,58.97
2022-12-11T21:57:05.360Z,59.57
2022-12-11T21:59:33.861Z,59.53
2022-12-11T22:02:02.050Z,58.94
2022-12-11T22:04:31.587Z,58.48
2022-12-11T22:06:59.732Z,58.26
2022-12-11T22:09:27.892Z,58.05
2022-12-11T22:11:58.669Z,58.36
2022-12-11T22:14:27.466Z,58.44
2022-12-11T22:16:55.737Z,58.28
2022-12-11T22:19:27.757Z,58.00
2022-12-11T22:22:00.451Z,58.03
2022-12-11T22:24:28.671Z,58.49
2022-12-11T22:26:56.805Z,57.59
2022-12-11T22:29:25.013Z,57.58
2022-12-11T22:31:53.423Z,57.35
2022-12-11T22:34:21.673Z,57.33
2022-12-11T22:36:49.895Z,57.28
2022-12-11T22:39:19.658Z,57.22
2022-12-11T22:41:47.746Z,57.26
2022-12-11T22:44:18.136Z,57.42
2022-12-11T22:46:49.959Z,57.30
2022-12-11T22:49:20.296Z,57.50
2022-12-11T22:51:48.930Z,57.11
2022-12-11T22:54:17.288Z,57.14
2022-12-11T22:56:46.844Z,57.15
2022-12-11T22:59:14.954Z,56.73
2022-12-11T23:01:43.215Z,57.42
2022-12-11T23:04:11.384Z,57.62
2022-12-11T23:06:39.940Z,58.70
2022-12-11T23:09:08.483Z,58.46
2022-12-11T23:11:38.842Z,58.74
2022-12-11T23:14:14.783Z,57.88
2022-12-11T23:16:43.747Z,58.26
2022-12-11T23:19:12.998Z,57.46
2022-12-11T23:21:41.492Z,57.75
2022-12-11T23:24:10.512Z,57.91
2022-12-11T23:26:39.133Z,57.92
2022-12-11T23:29:09.805Z,57.31
2022-12-11T23:31:37.965Z,57.37
2022-12-11T23:34:06.156Z,56.79
2022-12-11T23:36:34.722Z,56.82
2022-12-11T23:39:02.807Z,57.34
2022-12-11T23:41:30.949Z,57.55
2022-12-11T23:44:00.404Z,57.89
2022-12-11T23:46:29.898Z,57.54
2022-12-11T23:48:58.180Z,57.82
2022-12-11T23:51:27.025Z,58.31
2022-12-11T23:53:55.956Z,57.57
2022-12-11T23:56:28.311Z,57.97
2022-12-11T23:58:57.413Z,58.01
